Time;durP1;ratioP1;P1;durP2;ratioP2;P2;SDS_P1;SDS_P2;PMS_P1;PMS_P2;Temp;Humidity;BMP_temperature;BMP_pressure;BME280_temperature;BME280_humidity;BME280_pressure;Samples;Min_cycle;Max_cycle;Signal;HPM_P1;HPM_P2
2023/10/10 00:02:42;;;;;;;0.10;0.10;;;;;;;13.79;100.00;99677.72;5134576;27;20202;-58
2023/10/10 00:05:36;;;;;;;0.10;0.10;;;;;;;13.81;100.00;99682.00;5134284;27;20291;-59
2023/10/10 00:08:28;;;;;;;0.10;0.10;;;;;;;13.72;100.00;99683.47;5134540;27;20193;-58
2023/10/10 00:11:16;;;;;;;0.10;0.10;;;;;;;13.92;100.00;99687.41;5134369;27;20193;-59
2023/10/10 00:14:06;;;;;;;0.10;0.10;;;;;;;13.94;100.00;99692.63;5132940;27;20189;-58
2023/10/10 00:16:54;;;;;;;0.00;0.00;;;;;;;13.85;100.00;99691.47;5134223;27;20204;-58
2023/10/10 00:19:45;;;;;;;0.10;0.10;;;;;;;13.89;100.00;99694.75;5134274;27;20243;-58
2023/10/10 00:22:35;;;;;;;0.10;0.10;;;;;;;13.77;100.00;99691.13;5134300;27;20197;-58
2023/10/10 00:25:28;;;;;;;0.10;0.10;;;;;;;13.74;100.00;99694.88;5134092;27;20278;-58
2023/10/10 00:28:20;;;;;;;0.10;0.10;;;;;;;13.82;100.00;99697.00;5132662;27;20213;-59
2023/10/10 00:31:10;;;;;;;0.10;0.10;;;;;;;13.77;100.00;99696.44;5134100;27;20684;-58
2023/10/10 00:33:56;;;;;;;0.10;0.10;;;;;;;13.50;100.00;99687.69;5133991;27;20764;-58
2023/10/10 00:36:47;;;;;;;0.10;0.10;;;;;;;13.65;100.00;99684.00;5133854;27;20347;-58
2023/10/10 00:39:36;;;;;;;0.10;0.10;;;;;;;13.71;100.00;99688.91;5118510;28;20209;-58
2023/10/10 00:42:36;;;;;;;0.10;0.10;;;;;;;13.71;100.00;99688.91;5132435;28;20201;-58
2023/10/10 00:45:24;;;;;;;0.10;0.10;;;;;;;13.68;100.00;99694.41;5133768;28;20201;-58
2023/10/10 00:48:16;;;;;;;0.10;0.10;;;;;;;13.46;100.00;99677.25;5118324;28;20213;-58
2023/10/10 00:51:08;;;;;;;0.10;0.10;;;;;;;13.30;100.00;99687.22;5118324;28;20197;-59
2023/10/10 00:54:12;;;;;;;0.10;0.10;;;;;;;13.31;100.00;99674.75;5136634;27;20201;-58
2023/10/10 00:57:03;;;;;;;0.10;0.10;;;;;;;13.24;100.00;99678.81;5138122;27;20721;-59
2023/10/10 00:59:54;;;;;;;0.10;0.10;;;;;;;13.12;100.00;99673.31;5138113;27;20197;-58
2023/10/10 01:02:42;;;;;;;0.10;0.10;;;;;;;13.09;100.00;99676.16;5138018;27;20197;-58
2023/10/10 01:05:39;;;;;;;0.10;0.10;;;;;;;13.02;100.00;99674.00;5137723;27;20209;-59
2023/10/10 01:08:30;;;;;;;0.10;0.10;;;;;;;12.92;100.00;99672.91;5137858;27;20189;-58
2023/10/10 01:11:19;;;;;;;0.10;0.10;;;;;;;12.97;100.00;99674.31;5137702;27;20676;-58
2023/10/10 01:14:06;;;;;;;0.10;0.10;;;;;;;13.02;100.00;99677.50;5136314;27;20193;-58
2023/10/10 01:16:55;;;;;;;0.10;0.10;;;;;;;12.83;100.00;99671.69;5137671;27;20198;-58
2023/10/10 01:19:44;;;;;;;0.10;0.10;;;;;;;12.86;100.00;99668.84;5151360;27;20193;-58
2023/10/10 01:22:40;;;;;;;0.10;0.10;;;;;;;-144.59;100.00;63310.38;5137339;27;20250;-59
2023/10/10 01:25:43;;;;;;;0.10;0.10;;;;;;;12.59;100.00;99655.53;5137524;27;20256;-58
2023/10/10 01:28:34;;;;;;;0.10;0.10;;;;;;;12.43;100.00;99647.69;5136172;27;20650;-58
2023/10/10 01:31:24;;;;;;;0.10;0.10;;;;;;;12.40;100.00;99642.56;5137397;27;20259;-58
2023/10/10 01:34:30;;;;;;;0.10;0.10;;;;;;;12.41;100.00;99640.75;5137323;27;20198;-58
2023/10/10 01:37:20;;;;;;;0.10;0.10;;;;;;;12.47;100.00;99651.00;5121363;27;20293;-59
2023/10/10 01:40:15;;;;;;;0.10;0.10;;;;;;;12.58;100.00;99646.72;5137334;27;20291;-58
2023/10/10 01:43:07;;;;;;;0.10;0.10;;;;;;;12.62;100.00;99655.31;5120366;27;20236;-58
2023/10/10 01:46:08;;;;;;;0.10;0.10;;;;;;;-144.18;100.00;75750.00;5121524;27;20209;-58
2023/10/10 01:48:55;;;;;;;0.10;0.10;;;;;;;12.69;100.00;99653.97;5137079;27;20200;-58
2023/10/10 01:51:44;;;;;;;0.10;0.10;;;;;;;12.59;100.00;99660.84;5121388;27;20197;-58
2023/10/10 01:54:40;;;;;;;0.10;0.10;;;;;;;12.43;100.00;99660.09;5136915;27;20292;-58
2023/10/10 01:57:28;;;;;;;0.10;0.10;;;;;;;12.48;100.00;99655.38;5135700;27;20361;-58
2023/10/10 02:00:22;;;;;;;0.10;0.10;;;;;;;12.30;100.00;99650.28;5121198;27;20213;-59
2023/10/10 02:03:09;;;;;;;0.10;0.10;;;;;;;12.47;100.00;99654.53;5136886;27;20197;-58
2023/10/10 02:05:56;;;;;;;0.00;0.00;;;;;;;12.33;100.00;99659.84;5136018;27;20275;-58
2023/10/10 02:08:44;;;;;;;0.10;0.10;;;;;;;12.43;100.00;99652.13;5121236;27;20361;-58
2023/10/10 02:11:32;;;;;;;0.10;0.10;;;;;;;12.43;100.00;99653.00;5112934;27;20210;-58
2023/10/10 02:14:24;;;;;;;0.10;0.10;;;;;;;12.51;100.00;99655.16;5132088;27;20680;-59
2023/10/10 02:17:23;;;;;;;0.10;0.10;;;;;;;12.53;100.00;99667.41;5136588;27;20259;-58
2023/10/10 02:20:33;;;;;;;0.10;0.10;;;;;;;12.54;100.00;99660.28;5136467;27;20193;-58
2023/10/10 02:23:31;;;;;;;0.10;0.10;;;;;;;12.35;100.00;99662.41;5136721;27;20292;-58
2023/10/10 02:26:35;;;;;;;0.10;0.10;;;;;;;12.21;100.00;99661.47;5136320;27;20209;-59
2023/10/10 02:29:34;;;;;;;0.10;0.10;;;;;;;12.13;100.00;99658.44;5134888;27;20262;-59
2023/10/10 02:32:22;;;;;;;0.10;0.10;;;;;;;12.07;100.00;99663.28;5136260;27;20220;-58
2023/10/10 02:35:25;;;;;;;0.10;0.10;;;;;;;12.13;100.00;99653.13;5136302;27;20711;-58
2023/10/10 02:38:16;;;;;;;0.10;0.10;;;;;;;12.09;100.00;99667.56;5115161;28;20221;-58
2023/10/10 02:41:25;;;;;;;0.10;0.10;;;;;;;11.87;100.00;99652.09;5115562;28;20232;-59
2023/10/10 02:44:25;;;;;;;0.10;0.10;;;;;;;11.99;100.00;99654.00;5114158;28;20202;-58
2023/10/10 02:47:14;;;;;;;0.10;0.10;;;;;;;12.01;100.00;99662.72;5115088;28;20214;-59
2023/10/10 02:50:13;;;;;;;0.10;0.10;;;;;;;11.90;100.00;99657.22;5099669;28;20198;-59
2023/10/10 02:53:03;;;;;;;0.10;0.10;;;;;;;12.03;100.00;99666.13;5115337;28;20270;-59
2023/10/10 02:55:51;;;;;;;0.10;0.10;;;;;;;12.07;100.00;99664.16;5115238;28;20194;-58
2023/10/10 02:58:43;;;;;;;0.10;0.10;;;;;;;11.89;100.00;99657.31;5127253;27;20296;-58
2023/10/10 03:07:41;;;;;;;0.10;0.10;;;;;;;12.00;100.00;99647.72;5114740;28;20217;-59
2023/10/10 03:10:37;;;;;;;0.10;0.10;;;;;;;11.88;100.00;99648.50;5099436;28;20597;-58
2023/10/10 03:13:31;;;;;;;0.10;0.10;;;;;;;11.86;100.00;99647.72;5098209;28;20264;-59
2023/10/10 03:16:41;;;;;;;0.10;0.10;;;;;;;12.15;100.00;99645.91;5127425;27;20206;-59
2023/10/10 03:19:37;;;;;;;0.10;0.10;;;;;;;12.12;100.00;99646.13;5128306;27;20198;-59
2023/10/10 03:22:31;;;;;;;0.10;0.10;;;;;;;11.94;100.00;99650.75;5099262;28;20244;-58
2023/10/10 03:25:21;;;;;;;0.10;0.10;;;;;;;12.01;100.00;99660.06;5128270;27;20278;-58
2023/10/10 03:28:18;;;;;;;0.10;0.10;;;;;;;12.17;100.00;99653.81;5097652;28;20218;-58
2023/10/10 03:31:08;;;;;;;0.10;0.10;;;;;;;11.84;100.00;99648.75;5099005;28;20191;-58
2023/10/10 03:34:11;;;;;;;0.10;0.10;;;;;;;11.90;100.00;99651.06;5098793;28;20260;-58
2023/10/10 03:37:20;;;;;;;0.10;0.10;;;;;;;11.76;100.00;99649.19;5092872;28;20219;-58
2023/10/10 03:40:22;;;;;;;0.10;0.10;;;;;;;11.77;100.00;99650.91;5092763;28;20195;-59
2023/10/10 05:25:31;;;;;;;0.10;0.10;;;;;;;11.43;100.00;99666.22;5050207;28;20223;-58
2023/10/10 05:28:21;;;;;;;0.10;0.10;;;;;;;11.46;100.00;99665.16;5109236;28;20222;-58
2023/10/10 05:31:09;;;;;;;0.10;0.10;;;;;;;11.54;100.00;99662.91;5112855;28;20507;-58
2023/10/10 05:33:56;;;;;;;0.10;0.10;;;;;;;11.47;100.00;99674.81;5113003;28;20198;-58
2023/10/10 05:36:45;;;;;;;0.10;0.10;;;;;;;11.41;100.00;99672.56;5112714;28;20218;-58
2023/10/10 05:39:32;;;;;;;0.03;0.03;;;;;;;11.33;100.00;99677.44;5113151;28;20241;-58
2023/10/10 05:42:20;;;;;;;0.00;0.00;;;;;;;11.33;100.00;99670.34;5115598;28;20258;-58
2023/10/10 05:45:13;;;;;;;0.10;0.10;;;;;;;11.37;100.00;99674.53;5116765;28;20198;-58
2023/10/10 05:48:00;;;;;;;0.10;0.10;;;;;;;11.27;100.00;99669.84;5116346;28;20221;-58
2023/10/10 05:50:48;;;;;;;0.10;0.10;;;;;;;11.13;100.00;99668.88;5116485;28;20186;-57
2023/10/10 05:53:34;;;;;;;0.10;0.10;;;;;;;11.04;100.00;99658.78;5116502;28;20190;-58
2023/10/10 05:56:21;;;;;;;0.10;0.10;;;;;;;10.95;100.00;99669.06;5116455;28;20220;-58
2023/10/10 05:59:08;;;;;;;0.10;0.10;;;;;;;10.98;100.00;99674.19;5114946;28;20263;-59
2023/10/10 06:01:57;;;;;;;0.10;0.10;;;;;;;11.13;100.00;99676.81;5116200;28;20220;-58
2023/10/10 06:04:44;;;;;;;0.10;0.10;;;;;;;11.10;100.00;99681.47;5116239;28;20190;-58
2023/10/10 06:07:31;;;;;;;0.10;0.10;;;;;;;11.31;100.00;99677.56;5116085;28;20213;-58
2023/10/10 06:10:18;;;;;;;0.10;0.10;;;;;;;11.28;100.00;99680.34;5116071;28;20194;-59
2023/10/10 06:13:06;;;;;;;0.10;0.10;;;;;;;11.24;100.00;99672.69;5096170;28;20222;-58
2023/10/10 06:15:53;;;;;;;0.10;0.10;;;;;;;11.24;100.00;99678.00;5095215;28;20210;-58
2023/10/10 06:18:44;;;;;;;0.10;0.10;;;;;;;11.34;100.00;99676.50;5095445;28;20202;-58
2023/10/10 06:21:32;;;;;;;0.10;0.10;;;;;;;11.53;100.00;99687.75;5095600;28;20736;-59
2023/10/10 06:24:19;;;;;;;0.10;0.10;;;;;;;11.67;100.00;99686.91;5095497;28;20277;-58
2023/10/10 06:27:09;;;;;;;0.10;0.10;;;;;;;11.83;100.00;99695.69;5093939;28;20669;-59
2023/10/10 06:29:58;;;;;;;0.10;0.10;;;;;;;11.69;100.00;99683.22;5095383;28;20633;-59
2023/10/10 06:32:46;;;;;;;0.10;0.10;;;;;;;11.74;100.00;99682.94;5095375;28;20215;-58
2023/10/10 06:35:37;;;;;;;0.10;0.10;;;;;;;11.93;100.00;99672.94;5095167;28;20198;-58
2023/10/10 06:38:25;;;;;;;0.10;0.10;;;;;;;12.03;100.00;99681.19;5095243;28;20179;-58
2023/10/10 06:41:17;;;;;;;0.10;0.10;;;;;;;12.18;100.00;99680.25;5095133;28;20191;-59
2023/10/10 06:44:12;;;;;;;0.10;0.10;;;;;;;12.37;100.00;99687.94;5093822;28;20343;-58
2023/10/10 06:47:08;;;;;;;0.07;0.07;;;;;;;12.47;100.00;99677.59;5095044;28;20326;-58
2023/10/10 06:49:56;;;;;;;0.03;0.03;;;;;;;12.41;100.00;99676.16;5094974;28;20186;-58
2023/10/10 06:52:52;;;;;;;0.00;0.00;;;;;;;12.51;100.00;99668.44;5094803;28;20199;-58
2023/10/10 06:55:45;;;;;;;0.10;0.10;;;;;;;12.60;100.00;99673.19;5079570;28;20194;-58
2023/10/10 06:58:32;;;;;;;0.10;0.10;;;;;;;12.82;100.00;99670.84;5093420;28;20209;-58
2023/10/10 07:01:19;;;;;;;0.10;0.10;;;;;;;12.92;100.00;99675.56;5094656;28;20333;-58
2023/10/10 07:04:11;;;;;;;0.10;0.10;;;;;;;13.02;100.00;99684.63;5094611;28;20226;-58
2023/10/10 07:07:01;;;;;;;0.10;0.10;;;;;;;13.01;100.00;99677.59;5094580;28;20251;-58
2023/10/10 07:09:57;;;;;;;0.10;0.10;;;;;;;13.21;100.00;99676.31;5093159;28;20334;-58
2023/10/10 07:12:47;;;;;;;0.10;0.10;;;;;;;13.28;100.00;99670.50;5093182;28;20199;-58
2023/10/10 07:15:35;;;;;;;0.10;0.10;;;;;;;13.24;100.00;99660.19;5094474;28;20211;-58
2023/10/10 07:18:23;;;;;;;0.10;0.10;;;;;;;13.31;100.00;99669.44;5094465;28;20186;-58
2023/10/10 07:21:26;;;;;;;0.10;0.10;;;;;;;13.57;100.00;99665.88;5094386;28;20195;-58
2023/10/10 07:24:14;;;;;;;0.10;0.10;;;;;;;13.90;100.00;99660.06;5094408;28;20270;-58
2023/10/10 07:27:11;;;;;;;0.10;0.10;;;;;;;14.00;100.00;99666.44;5093391;28;20214;-58
2023/10/10 07:29:59;;;;;;;0.10;0.10;;;;;;;14.32;100.00;99663.31;5093983;28;20223;-58
2023/10/10 07:32:48;;;;;;;0.10;0.10;;;;;;;14.48;100.00;99655.09;5094215;28;20233;-58
2023/10/10 07:35:36;;;;;;;0.10;0.10;;;;;;;14.68;100.00;99649.19;5094211;28;20195;-58
2023/10/10 07:38:28;;;;;;;0.10;0.10;;;;;;;14.69;100.00;99647.34;5094088;28;20190;-58
2023/10/10 07:41:20;;;;;;;0.10;0.10;;;;;;;-144.59;100.00;99647.34;5093878;28;20316;-58
2023/10/10 07:44:09;;;;;;;0.10;0.10;;;;;;;15.01;100.00;99648.50;5092560;28;20539;-58
2023/10/10 07:50:08;;;;;;;0.00;0.00;;;;;;;15.40;100.00;99641.13;5093622;28;20236;-58
2023/10/10 07:52:55;;;;;;;0.10;0.10;;;;;;;15.68;100.00;99650.56;5093728;28;20207;-58
2023/10/10 07:55:53;;;;;;;0.10;0.10;;;;;;;15.55;100.00;99645.28;5093733;28;20195;-58
2023/10/10 07:58:49;;;;;;;0.07;0.07;;;;;;;15.77;100.00;99641.00;5092415;28;20191;-58
2023/10/10 08:01:42;;;;;;;0.10;0.10;;;;;;;15.65;100.00;99640.97;5093629;28;20198;-58
2023/10/10 08:04:29;;;;;;;0.10;0.10;;;;;;;15.54;100.00;99643.59;5093198;28;20199;-58
2023/10/10 08:07:18;;;;;;;0.10;0.10;;;;;;;15.84;100.00;99645.75;5093441;28;20198;-58
2023/10/10 08:10:29;;;;;;;0.10;0.10;;;;;;;15.99;100.00;99646.34;5093249;28;20295;-58
2023/10/10 08:13:16;;;;;;;0.10;0.10;;;;;;;16.33;100.00;99641.03;5092359;28;20233;-58
2023/10/10 08:16:04;;;;;;;0.10;0.10;;;;;;;16.48;100.00;99645.13;5094344;28;20314;-57
2023/10/10 08:19:04;;;;;;;0.10;0.10;;;;;;;16.51;100.00;99639.56;5094170;28;20268;-58
2023/10/10 08:21:51;;;;;;;0.10;0.10;;;;;;;16.59;100.00;99623.69;5094033;28;20199;-58
2023/10/10 08:24:43;;;;;;;0.10;0.10;;;;;;;16.95;100.00;99625.22;5093625;28;20307;-58
2023/10/10 08:27:33;;;;;;;0.10;0.10;;;;;;;16.78;100.00;99621.25;5092517;28;20194;-58
2023/10/10 08:30:25;;;;;;;0.10;0.10;;;;;;;17.19;100.00;99622.34;5091795;28;20219;-58
2023/10/10 08:33:12;;;;;;;0.10;0.10;;;;;;;17.39;100.00;99607.28;5093761;28;20195;-58
2023/10/10 08:36:01;;;;;;;0.00;0.00;;;;;;;17.54;100.00;99597.06;5093826;28;20203;-58
2023/10/10 08:38:48;;;;;;;0.10;0.10;;;;;;;17.59;100.00;99601.06;5093725;28;20190;-58
2023/10/10 08:41:38;;;;;;;0.00;0.00;;;;;;;17.70;100.00;99590.28;5093895;28;20244;-58
2023/10/10 08:44:29;;;;;;;0.10;0.10;;;;;;;18.12;100.00;99589.34;5093306;28;20701;-58
2023/10/10 08:47:26;;;;;;;0.10;0.10;;;;;;;18.19;100.00;99579.78;5106949;28;20266;-58
2023/10/10 08:50:13;;;;;;;0.10;0.10;;;;;;;17.97;100.00;99572.78;5093477;28;20280;-58
2023/10/10 08:53:05;;;;;;;0.10;0.10;;;;;;;17.82;100.00;99576.81;5092456;28;20194;-57
2023/10/10 08:55:56;;;;;;;0.00;0.00;;;;;;;17.95;100.00;99580.09;5093556;28;20191;-58
2023/10/10 08:58:43;;;;;;;0.10;0.10;;;;;;;18.50;100.00;99577.88;5092031;28;20249;-58
2023/10/10 09:01:33;;;;;;;0.00;0.00;;;;;;;18.28;100.00;99587.84;5092813;28;20194;-58
2023/10/10 09:04:25;;;;;;;0.10;0.10;;;;;;;18.28;100.00;104011.00;5078238;28;20214;-58
2023/10/10 09:07:23;;;;;;;0.10;0.10;;;;;;;18.27;100.00;99590.69;5093352;28;20215;-58
2023/10/10 09:10:14;;;;;;;0.10;0.10;;;;;;;18.81;100.00;99576.81;5093040;28;20222;-58
2023/10/10 09:13:04;;;;;;;0.10;0.10;;;;;;;18.90;100.00;99572.44;5092071;28;20257;-58
2023/10/10 09:15:55;;;;;;;0.10;0.10;;;;;;;19.36;100.00;99573.53;5095830;28;20199;-58
2023/10/10 09:18:43;;;;;;;0.10;0.10;;;;;;;19.72;100.00;99570.09;5097779;28;20211;-58
2023/10/10 09:21:30;;;;;;;0.10;0.10;;;;;;;20.22;100.00;99568.91;5096094;28;20281;-58
2023/10/10 09:24:28;;;;;;;0.10;0.10;;;;;;;20.42;100.00;99567.78;5097368;28;20202;-58
2023/10/10 09:27:23;;;;;;;0.10;0.10;;;;;;;20.71;100.00;99566.78;5096062;28;20194;-58
2023/10/10 09:30:15;;;;;;;0.10;0.10;;;;;;;20.77;100.00;99574.25;5081845;28;20297;-58
2023/10/10 09:33:16;;;;;;;0.00;0.00;;;;;;;21.49;100.00;99570.50;5096763;28;20232;-58
2023/10/10 09:36:15;;;;;;;0.10;0.10;;;;;;;22.60;100.00;99571.44;5097381;28;20198;-58
2023/10/10 09:39:09;;;;;;;0.00;0.00;;;;;;;23.73;100.00;99558.13;5096442;28;20284;-58
2023/10/10 09:42:09;;;;;;;0.10;0.10;;;;;;;24.14;99.00;99558.88;5081046;28;20275;-58
2023/10/10 09:48:06;;;;;;;0.00;0.00;;;;;;;25.41;86.58;99547.56;5096852;28;20676;-58
2023/10/10 09:51:08;;;;;;;0.10;0.10;;;;;;;25.41;86.58;99547.56;5096866;28;20222;-58
2023/10/10 09:54:01;;;;;;;0.00;0.00;;;;;;;-97.76;79.51;99545.44;5110472;28;20213;-59
2023/10/10 09:56:53;;;;;;;0.00;0.00;;;;;;;24.84;84.53;99545.31;5096946;28;20233;-58
2023/10/10 09:59:42;;;;;;;0.00;0.00;;;;;;;25.91;78.88;99552.31;5097021;28;20300;-58
2023/10/10 10:02:43;;;;;;;0.10;0.10;;;;;;;25.31;75.14;99560.56;5097033;28;20677;-58
2023/10/10 10:05:34;;;;;;;0.10;0.10;;;;;;;25.25;82.01;99553.13;5081402;28;20198;-58
2023/10/10 10:08:32;;;;;;;0.10;0.10;;;;;;;24.53;85.88;99557.00;5109791;28;20433;-58
2023/10/10 10:11:29;;;;;;;0.00;0.00;;;;;;;24.71;81.43;99562.16;5096199;28;20221;-58
2023/10/10 10:14:28;;;;;;;0.00;0.00;;;;;;;25.03;79.96;99566.53;5095387;28;20198;-58
2023/10/10 10:17:47;;;;;;;0.10;0.10;;;;;;;26.13;73.48;99568.69;5080856;28;20197;-59
2023/10/10 10:20:46;;;;;;;0.10;0.10;;;;;;;26.62;70.68;99555.34;5095264;28;20206;-58
2023/10/10 10:23:44;;;;;;;0.00;0.00;;;;;;;28.42;63.16;99553.03;5096287;28;20191;-58
2023/10/10 10:26:41;;;;;;;0.00;0.00;;;;;;;27.69;62.10;99559.94;5095502;28;20230;-58
2023/10/10 10:29:36;;;;;;;0.00;0.00;;;;;;;26.70;67.40;99557.94;5096029;28;20214;-58
2023/10/10 10:32:25;;;;;;;0.00;0.00;;;;;;;26.75;69.00;99557.38;5096097;28;20187;-58
2023/10/10 10:35:18;;;;;;;0.00;0.00;;;;;;;28.02;61.47;99555.56;5096341;28;20261;-59
2023/10/10 10:38:09;;;;;;;0.00;0.00;;;;;;;29.80;55.41;99549.66;5095751;28;20666;-59
2023/10/10 10:41:04;;;;;;;0.00;0.00;;;;;;;28.11;59.42;99548.91;5095382;28;20310;-58
2023/10/10 10:43:51;;;;;;;0.00;0.00;;;;;;;29.12;54.60;99545.47;5093674;28;20198;-59
2023/10/10 10:46:40;;;;;;;0.00;0.00;;;;;;;29.25;54.91;99543.59;5095120;28;20249;-59
2023/10/10 10:49:30;;;;;;;0.00;0.00;;;;;;;28.38;56.05;99530.81;5094971;28;20229;-58
2023/10/10 10:52:56;;;;;;;0.05;0.05;;;;;;;29.06;55.63;99531.63;5094832;28;20203;-58
2023/10/10 10:55:59;;;;;;;0.00;0.00;;;;;;;29.92;49.61;99522.56;5094888;28;20194;-58
2023/10/10 11:01:56;;;;;;;0.00;0.00;;;;;;;29.82;51.26;99520.25;5094762;28;20202;-59
2023/10/10 11:04:49;;;;;;;0.00;0.00;;;;;;;29.67;52.52;99519.66;5094701;28;20194;-59
2023/10/10 11:07:42;;;;;;;0.00;0.00;;;;;;;30.54;51.32;99512.00;5094680;28;20280;-59
2023/10/10 11:10:36;;;;;;;0.00;0.00;;;;;;;29.29;52.78;99511.28;5093722;28;20337;-59
2023/10/10 11:13:26;;;;;;;0.00;0.00;;;;;;;30.07;51.01;99501.28;5093349;28;20195;-59
2023/10/10 11:16:12;;;;;;;0.00;0.00;;;;;;;28.84;53.39;99501.97;5094451;28;20238;-59
2023/10/10 11:19:11;;;;;;;0.00;0.00;;;;;;;28.80;56.24;99507.84;5094544;28;20260;-59
2023/10/10 11:22:01;;;;;;;0.00;0.00;;;;;;;29.49;52.10;99498.47;5094372;28;20199;-59
2023/10/10 11:24:49;;;;;;;0.00;0.00;;;;;;;29.47;51.12;99497.81;5094354;28;20199;-59
2023/10/10 11:27:43;;;;;;;0.00;0.00;;;;;;;30.35;50.89;99494.66;5092811;28;20723;-59
2023/10/10 11:30:34;;;;;;;0.00;0.00;;;;;;;28.82;55.22;99484.97;5094160;28;20249;-59
2023/10/10 11:33:48;;;;;;;0.00;0.00;;;;;;;29.63;51.57;99494.69;5094202;28;20207;-59
2023/10/10 11:36:39;;;;;;;0.00;0.00;;;;;;;27.97;57.74;99484.50;5093914;28;20277;-59
2023/10/10 11:39:31;;;;;;;0.00;0.00;;;;;;;27.99;59.51;99476.97;5093649;28;20199;-59
2023/10/10 11:42:27;;;;;;;0.00;0.00;;;;;;;28.69;55.72;99480.34;5092509;28;20202;-59
2023/10/10 11:45:17;;;;;;;0.00;0.00;;;;;;;28.05;58.50;99486.19;5093896;28;20191;-59
2023/10/10 11:48:12;;;;;;;0.00;0.00;;;;;;;29.27;55.74;99477.91;5093923;28;20275;-59
2023/10/10 11:50:59;;;;;;;0.00;0.00;;;;;;;29.81;52.49;99472.13;5093711;28;20215;-59
2023/10/10 11:53:46;;;;;;;0.00;0.00;;;;;;;28.93;54.69;99466.13;5093841;28;20213;-59
2023/10/10 11:56:34;;;;;;;0.00;0.00;;;;;;;29.72;54.53;99459.75;5093654;28;20194;-59
2023/10/10 11:59:22;;;;;;;0.00;0.00;;;;;;;30.85;48.97;99465.53;5093265;28;20234;-59
2023/10/10 12:02:13;;;;;;;0.00;0.00;;;;;;;30.25;47.92;99456.00;5093621;28;20183;-59
2023/10/10 12:05:14;;;;;;;0.00;0.00;;;;;;;29.71;51.52;99466.28;5093418;28;20202;-59
2023/10/10 12:08:05;;;;;;;0.00;0.00;;;;;;;30.35;50.07;99462.69;5093735;28;20245;-59
2023/10/10 12:11:04;;;;;;;0.00;0.00;;;;;;;30.60;48.36;99459.19;5093520;28;20276;-59
2023/10/10 12:13:52;;;;;;;0.00;0.00;;;;;;;31.19;48.02;99463.38;5092143;28;20198;-59
2023/10/10 12:16:39;;;;;;;0.00;0.00;;;;;;;27.89;55.53;99460.16;5093142;28;20282;-59
2023/10/10 12:19:28;;;;;;;0.00;0.00;;;;;;;28.29;55.94;99455.75;5093482;28;20291;-59
2023/10/10 12:22:17;;;;;;;0.00;0.00;;;;;;;29.16;53.34;99454.81;5093362;28;20199;-59
2023/10/10 12:25:05;;;;;;;0.00;0.00;;;;;;;29.04;51.50;99453.75;5093345;28;20672;-59
2023/10/10 12:27:59;;;;;;;0.00;0.00;;;;;;;30.48;48.18;99450.81;5091811;28;20194;-57
2023/10/10 12:30:46;;;;;;;0.00;0.00;;;;;;;30.19;48.18;99435.84;5093098;28;20213;-57
2023/10/10 12:33:36;;;;;;;0.00;0.00;;;;;;;29.10;52.08;99439.28;5093206;28;20195;-57
2023/10/10 12:36:28;;;;;;;0.00;0.00;;;;;;;29.45;50.94;99439.03;5092845;28;20227;-57
2023/10/10 12:39:19;;;;;;;0.00;0.00;;;;;;;29.99;47.84;99440.53;5093051;28;20684;-57
2023/10/10 12:42:07;;;;;;;0.00;0.00;;;;;;;29.85;49.36;99437.88;5091514;28;20272;-57
2023/10/10 12:44:54;;;;;;;0.00;0.00;;;;;;;30.50;46.76;99435.06;5091754;28;20648;-57
2023/10/10 12:47:41;;;;;;;0.00;0.00;;;;;;;30.47;45.91;99430.84;5092926;28;20214;-57
2023/10/10 12:50:29;;;;;;;0.00;0.00;;;;;;;32.25;43.44;99415.63;5092705;28;20194;-57
2023/10/10 12:53:18;;;;;;;0.00;0.00;;;;;;;33.46;39.01;99417.06;5092924;28;20199;-57
2023/10/10 12:56:11;;;;;;;0.00;0.00;;;;;;;34.73;36.91;99412.19;5093067;28;20195;-57
2023/10/10 12:59:03;;;;;;;0.00;0.00;;;;;;;34.52;37.06;99417.59;5091764;28;20190;-58
2023/10/10 13:02:15;;;;;;;0.00;0.00;;;;;;;33.55;38.41;99410.97;5093164;28;20203;-58
2023/10/10 13:05:03;;;;;;;0.00;0.00;;;;;;;35.42;35.06;99405.59;5092966;28;20239;-58
2023/10/10 13:07:51;;;;;;;0.00;0.00;;;;;;;30.93;42.13;99401.50;5092770;28;20199;-57
2023/10/10 13:10:39;;;;;;;0.00;0.00;;;;;;;33.65;39.52;99404.84;5092719;28;20210;-57
2023/10/10 13:13:31;;;;;;;0.00;0.00;;;;;;;35.83;35.78;99390.44;5091450;28;20190;-58
2023/10/10 13:16:26;;;;;;;0.00;0.00;;;;;;;34.23;37.32;99390.09;5092795;28;20199;-57
2023/10/10 13:19:13;;;;;;;0.00;0.00;;;;;;;35.24;35.91;99385.50;5077624;28;20199;-58
2023/10/10 13:22:02;;;;;;;0.00;0.00;;;;;;;34.94;35.76;99388.63;5092801;28;20272;-58
2023/10/10 13:24:49;;;;;;;0.00;0.00;;;;;;;33.23;37.40;99387.69;5092832;28;20203;-57
2023/10/10 13:27:36;;;;;;;0.00;0.00;;;;;;;33.73;36.62;99376.16;5091365;28;20365;-58
2023/10/10 13:30:24;;;;;;;0.00;0.00;;;;;;;34.24;37.30;99382.66;5092684;28;20191;-57
2023/10/10 13:33:11;;;;;;;0.00;0.00;;;;;;;33.62;37.79;99380.59;5092617;28;20187;-57
2023/10/10 13:35:58;;;;;;;0.00;0.00;;;;;;;33.12;38.44;99372.88;5092597;28;20194;-57
2023/10/10 13:38:47;;;;;;;0.00;0.00;;;;;;;34.05;37.49;99368.28;5092604;28;20199;-57
2023/10/10 13:41:35;;;;;;;0.00;0.00;;;;;;;33.89;36.97;99371.84;5092542;28;20195;-57
2023/10/10 13:44:22;;;;;;;0.00;0.00;;;;;;;32.61;38.83;99370.78;5092630;28;20435;-59
2023/10/10 13:47:11;;;;;;;0.00;0.00;;;;;;;33.30;38.75;99375.50;5092606;28;20202;-57
2023/10/10 13:50:28;;;;;;;0.00;0.00;;;;;;;33.37;38.06;99366.31;5091589;28;20227;-57
2023/10/10 13:53:06;;;;;;;0.00;0.00;;;;;;;31.74;39.64;99362.91;5092186;28;20215;-57
2023/10/10 13:55:53;;;;;;;0.00;0.00;;;;;;;31.00;42.17;99364.81;5092431;28;20199;-59
2023/10/10 13:58:47;;;;;;;0.00;0.00;;;;;;;30.47;43.77;99364.38;5091272;28;20252;-59
2023/10/10 14:01:39;;;;;;;0.00;0.00;;;;;;;30.84;43.00;99354.44;5094046;28;20223;-59
2023/10/10 14:04:28;;;;;;;0.00;0.00;;;;;;;30.42;43.47;99350.56;5095935;28;20549;-59
2023/10/10 14:07:15;;;;;;;0.00;0.00;;;;;;;30.29;44.39;99358.84;5095825;28;20305;-59
2023/10/10 14:10:05;;;;;;;0.00;0.00;;;;;;;30.73;43.35;99352.44;5095863;28;20203;-59
2023/10/10 14:12:52;;;;;;;0.00;0.00;;;;;;;31.80;42.03;99356.56;5094470;28;20696;-59
2023/10/10 14:15:56;;;;;;;0.00;0.00;;;;;;;32.18;41.39;99352.66;5095752;28;20214;-57
2023/10/10 14:18:47;;;;;;;0.00;0.00;;;;;;;32.62;39.79;99342.28;5095523;28;20198;-57
2023/10/10 14:21:38;;;;;;;0.00;0.00;;;;;;;32.60;39.69;99339.78;5095624;28;20211;-57
2023/10/10 14:24:25;;;;;;;0.00;0.00;;;;;;;32.44;39.83;99340.50;5095446;28;20198;-57
2023/10/10 14:27:12;;;;;;;0.00;0.00;;;;;;;31.31;41.18;99338.41;5094243;28;20764;-57
2023/10/10 14:30:03;;;;;;;0.00;0.00;;;;;;;30.93;43.72;99335.81;5095394;28;20714;-57
2023/10/10 14:32:55;;;;;;;0.00;0.00;;;;;;;30.95;43.61;99339.16;5095152;28;20256;-57
2023/10/10 14:35:43;;;;;;;0.00;0.00;;;;;;;31.65;41.60;99336.06;5095303;28;20284;-57
2023/10/10 14:38:31;;;;;;;0.00;0.00;;;;;;;31.04;44.01;99335.91;5095291;28;20203;-58
2023/10/10 14:41:19;;;;;;;0.00;0.00;;;;;;;33.71;39.31;99335.19;5095287;28;20194;-58
2023/10/10 14:44:12;;;;;;;0.00;0.00;;;;;;;33.23;39.27;99333.59;5093994;28;20223;-57
2023/10/10 14:47:01;;;;;;;0.00;0.00;;;;;;;33.79;38.45;99329.28;5095144;28;20191;-58
2023/10/10 14:49:53;;;;;;;0.00;0.00;;;;;;;34.63;37.07;99329.44;5094838;28;20186;-58
2023/10/10 14:52:47;;;;;;;0.00;0.00;;;;;;;31.13;43.02;99332.88;5094853;28;20281;-58
2023/10/10 14:55:39;;;;;;;0.00;0.00;;;;;;;31.49;42.65;99338.41;5094972;28;20195;-58
2023/10/10 14:58:27;;;;;;;0.00;0.00;;;;;;;32.46;41.05;99339.16;5093416;28;20195;-58
2023/10/10 15:01:20;;;;;;;0.00;0.00;;;;;;;32.95;40.34;99336.25;5094631;28;20206;-58
2023/10/10 15:04:08;;;;;;;0.00;0.00;;;;;;;32.67;40.87;99336.94;5094558;28;20198;-58
2023/10/10 15:06:56;;;;;;;0.00;0.00;;;;;;;31.22;43.50;99337.88;5094855;28;20198;-58
2023/10/10 15:09:43;;;;;;;0.00;0.00;;;;;;;31.92;43.15;99334.69;5094735;28;20289;-58
2023/10/10 15:12:33;;;;;;;0.00;0.00;;;;;;;31.27;44.02;99329.81;5093011;28;20230;-58
2023/10/10 15:15:22;;;;;;;0.00;0.00;;;;;;;31.73;43.54;99322.91;5094581;28;20286;-58
2023/10/10 15:18:10;;;;;;;0.00;0.00;;;;;;;31.83;42.49;99328.69;5094225;28;20333;-58
2023/10/10 15:20:58;;;;;;;0.00;0.00;;;;;;;32.26;41.88;99335.88;5094174;28;20622;-59
2023/10/10 15:23:46;;;;;;;0.00;0.00;;;;;;;32.29;41.52;99327.19;5094368;28;20252;-59